Time;durP1;ratioP1;P1;durP2;ratioP2;P2;SDS_P1;SDS_P2;PMS_P1;PMS_P2;Temp;Humidity;BMP_temperature;BMP_pressure;BME280_temperature;BME280_humidity;BME280_pressure;Samples;Min_cycle;Max_cycle;Signal;HPM_P1;HPM_P2
2023/04/18 00:02:16;;;;;;;12.20;8.30;;;;;;;;;;5069405;28;20098;-71
2023/04/18 00:04:45;;;;;;;9.57;7.97;;;;;;;;;;5036629;28;20037;-72
2023/04/18 00:07:12;;;;;;;12.20;8.77;;;;;;;;;;5083841;28;20040;-72
2023/04/18 00:09:38;;;;;;;12.90;8.23;;;;;;;;;;5052797;28;20045;-72
2023/04/18 00:12:05;;;;;;;10.43;7.80;;;;;;;;;;5103022;28;20043;-72
2023/04/18 00:14:33;;;;;;;;;;;;;;;;;;5079712;28;20533;-72
2023/04/18 00:17:00;;;;;;;11.18;7.85;;;;;;;;;;5087491;28;19920;-72
2023/04/18 00:19:26;;;;;;;10.38;7.70;;;;;;;;;;5077646;28;20075;-72
2023/04/18 00:21:52;;;;;;;9.50;7.60;;;;;;;;;;5058475;28;20048;-72
2023/04/18 00:24:19;;;;;;;10.25;7.15;;;;;;;;;;5069435;28;20117;-71
2023/04/18 00:26:45;;;;;;;11.07;6.75;;;;;;;;;;5052981;28;20097;-72
2023/04/18 00:29:11;;;;;;;10.88;7.47;;;;;;;;;;5069158;28;20055;-72
2023/04/18 00:31:37;;;;;;;12.95;7.82;;;;;;;;;;5068068;28;20035;-72
2023/04/18 00:34:04;;;;;;;8.80;7.20;;;;;;;;;;5069054;28;20515;-72
2023/04/18 00:36:30;;;;;;;9.63;7.28;;;;;;;;;;5079580;28;20048;-72
2023/04/18 00:38:56;;;;;;;10.68;7.97;;;;;;;;;;5072364;28;20049;-72
2023/04/18 00:41:26;;;;;;;11.35;8.43;;;;;;;;;;5083307;28;20087;-72
2023/04/18 00:43:52;;;;;;;12.20;7.95;;;;;;;;;;5068833;28;20488;-72
2023/04/18 00:46:18;;;;;;;10.90;8.38;;;;;;;;;;5054596;28;20829;-71
2023/04/18 00:48:44;;;;;;;12.88;8.98;;;;;;;;;;5058366;28;20031;-72
2023/04/18 00:51:10;;;;;;;10.88;8.55;;;;;;;;;;5060353;28;20068;-72
2023/04/18 00:53:37;;;;;;;10.05;7.40;;;;;;;;;;5038055;28;20055;-72
2023/04/18 00:56:03;;;;;;;13.00;8.48;;;;;;;;;;5058736;28;20055;-72
2023/04/18 00:58:30;;;;;;;;;;;;;;;;;;5062998;28;20155;-71
2023/04/18 01:00:56;;;;;;;12.65;7.78;;;;;;;;;;5090507;28;19920;-71
2023/04/18 01:03:22;;;;;;;8.68;7.40;;;;;;;;;;5038215;28;20385;-71
2023/04/18 01:05:48;;;;;;;12.60;8.00;;;;;;;;;;5068298;28;20040;-71
2023/04/18 01:08:15;;;;;;;9.32;7.40;;;;;;;;;;5068567;28;20074;-71
2023/04/18 01:10:41;;;;;;;12.45;7.78;;;;;;;;;;5068581;28;20033;-72
2023/04/18 01:13:11;;;;;;;10.30;7.78;;;;;;;;;;5035760;28;20060;-71
2023/04/18 01:15:39;;;;;;;9.80;7.50;;;;;;;;;;5070101;28;20041;-71
2023/04/18 01:18:06;;;;;;;10.27;7.90;;;;;;;;;;5062237;28;20168;-71
2023/04/18 01:20:34;;;;;;;9.48;7.50;;;;;;;;;;5072704;28;20385;-70
2023/04/18 01:23:00;;;;;;;15.07;8.68;;;;;;;;;;5072745;28;20040;-70
2023/04/18 01:25:26;;;;;;;11.32;8.15;;;;;;;;;;5055704;28;20052;-71
2023/04/18 01:27:53;;;;;;;10.65;7.72;;;;;;;;;;5055560;28;20041;-71
2023/04/18 01:30:19;;;;;;;8.85;7.43;;;;;;;;;;5072448;28;20080;-71
2023/04/18 01:32:45;;;;;;;9.93;7.57;;;;;;;;;;5072378;28;20389;-70
2023/04/18 01:35:11;;;;;;;10.55;7.50;;;;;;;;;;5055946;28;20420;-70
2023/04/18 01:37:37;;;;;;;10.80;7.10;;;;;;;;;;5053903;28;20404;-71
2023/04/18 01:40:04;;;;;;;12.07;8.23;;;;;;;;;;5059346;28;20028;-71
2023/04/18 01:42:30;;;;;;;9.95;7.40;;;;;;;;;;5072477;28;20097;-71
2023/04/18 01:44:56;;;;;;;15.15;7.97;;;;;;;;;;5052893;28;20102;-71
2023/04/18 01:47:22;;;;;;;9.85;7.72;;;;;;;;;;5046855;28;20166;-71
2023/04/18 01:49:48;;;;;;;10.63;7.72;;;;;;;;;;5057976;28;20068;-71
2023/04/18 01:52:14;;;;;;;12.52;8.45;;;;;;;;;;5071961;28;20063;-71
2023/04/18 01:54:41;;;;;;;11.38;7.65;;;;;;;;;;5057881;28;20124;-70
2023/04/18 01:57:07;;;;;;;12.20;8.02;;;;;;;;;;5064523;28;20171;-70
2023/04/18 01:59:33;;;;;;;10.10;7.10;;;;;;;;;;5065219;28;20044;-70
2023/04/18 02:01:59;;;;;;;8.15;6.43;;;;;;;;;;5094336;28;20043;-70
2023/04/18 02:04:25;;;;;;;10.13;7.03;;;;;;;;;;5071151;28;20056;-70
2023/04/18 02:06:52;;;;;;;7.95;6.45;;;;;;;;;;5081628;28;20158;-71
2023/04/18 02:09:18;;;;;;;;;;;;;;;;;;5083771;28;20043;-71
2023/04/18 02:11:44;;;;;;;9.35;6.18;;;;;;;;;;5079454;28;19916;-71
2023/04/18 02:14:10;;;;;;;9.68;6.55;;;;;;;;;;5079337;28;20510;-71
2023/04/18 02:16:37;;;;;;;8.10;6.07;;;;;;;;;;5078768;28;20098;-71
2023/04/18 02:19:05;;;;;;;7.55;6.15;;;;;;;;;;5061021;28;20050;-71
2023/04/18 02:21:31;;;;;;;8.15;6.00;;;;;;;;;;5072956;28;20052;-71
2023/04/18 02:23:57;;;;;;;8.93;6.03;;;;;;;;;;5059109;28;20050;-71
2023/04/18 02:26:23;;;;;;;10.07;6.00;;;;;;;;;;5083020;28;20036;-71
2023/04/18 02:28:49;;;;;;;8.20;5.50;;;;;;;;;;5079215;28;20119;-71
2023/04/18 02:31:16;;;;;;;7.60;5.78;;;;;;;;;;5071158;28;20047;-71
2023/04/18 02:33:42;;;;;;;9.13;6.05;;;;;;;;;;5104978;28;20047;-72
2023/04/18 02:36:08;;;;;;;9.95;6.40;;;;;;;;;;5070956;28;20113;-71
2023/04/18 02:38:34;;;;;;;6.90;5.18;;;;;;;;;;5071373;28;20098;-71
2023/04/18 02:41:00;;;;;;;8.52;5.53;;;;;;;;;;5070302;28;20429;-71
2023/04/18 02:43:26;;;;;;;9.63;5.93;;;;;;;;;;5057734;28;20040;-71
2023/04/18 02:45:52;;;;;;;8.07;5.57;;;;;;;;;;5070967;28;20519;-72
2023/04/18 02:48:19;;;;;;;7.60;5.07;;;;;;;;;;5070645;28;20388;-72
2023/04/18 02:50:45;;;;;;;8.95;5.57;;;;;;;;;;5070595;28;20230;-72
2023/04/18 02:53:11;;;;;;;9.45;5.55;;;;;;;;;;5070924;28;20075;-71
2023/04/18 02:55:37;;;;;;;6.32;5.15;;;;;;;;;;5070671;28;20079;-71
2023/04/18 02:58:03;;;;;;;6.25;4.75;;;;;;;;;;5070842;28;20388;-71
2023/04/18 03:00:29;;;;;;;6.22;4.50;;;;;;;;;;5053984;28;20040;-71
2023/04/18 03:02:56;;;;;;;7.10;5.30;;;;;;;;;;5057397;28;20079;-71
2023/04/18 03:05:22;;;;;;;7.65;5.40;;;;;;;;;;5055483;28;20058;-71
2023/04/18 03:07:48;;;;;;;8.48;5.72;;;;;;;;;;5059034;28;20130;-71
2023/04/18 03:10:14;;;;;;;5.85;4.80;;;;;;;;;;5067495;28;20472;-71
2023/04/18 03:12:40;;;;;;;8.02;4.90;;;;;;;;;;5044248;28;20041;-71
2023/04/18 03:15:06;;;;;;;6.82;4.68;;;;;;;;;;5065507;28;20127;-71
2023/04/18 03:17:32;;;;;;;;;;;;;;;;;;5063496;28;20071;-71
2023/04/18 03:19:58;;;;;;;6.82;5.18;;;;;;;;;;5097422;28;20336;-71
2023/04/18 03:22:24;;;;;;;8.65;5.53;;;;;;;;;;5044733;28;20044;-71
2023/04/18 03:24:50;;;;;;;6.57;5.00;;;;;;;;;;5061425;28;20094;-71
2023/04/18 03:27:16;;;;;;;7.57;5.70;;;;;;;;;;5070032;28;20050;-71
2023/04/18 03:29:43;;;;;;;9.25;5.40;;;;;;;;;;5053431;28;20040;-71
2023/04/18 03:32:09;;;;;;;7.80;5.38;;;;;;;;;;5069716;28;20064;-71
2023/04/18 03:34:35;;;;;;;7.05;5.00;;;;;;;;;;5070083;28;20053;-71
2023/04/18 03:37:01;;;;;;;6.70;4.78;;;;;;;;;;5069465;28;20063;-71
2023/04/18 03:39:27;;;;;;;6.95;5.10;;;;;;;;;;5068787;28;20045;-71
2023/04/18 03:41:53;;;;;;;8.38;5.20;;;;;;;;;;5065331;28;20067;-71
2023/04/18 03:44:19;;;;;;;5.45;4.53;;;;;;;;;;5069597;28;20048;-71
2023/04/18 03:46:45;;;;;;;7.13;5.00;;;;;;;;;;5055805;28;20400;-71
2023/04/18 03:49:12;;;;;;;7.03;4.75;;;;;;;;;;5053077;28;20043;-71
2023/04/18 03:51:42;;;;;;;5.85;4.72;;;;;;;;;;5048288;28;20056;-71
2023/04/18 03:54:08;;;;;;;6.60;5.30;;;;;;;;;;5060283;28;20097;-69
2023/04/18 03:56:35;;;;;;;6.05;4.88;;;;;;;;;;5069129;28;20558;-69
2023/04/18 03:59:01;;;;;;;6.93;5.20;;;;;;;;;;5069282;28;20041;-70
2023/04/18 04:01:27;;;;;;;6.53;4.90;;;;;;;;;;5059690;28;20120;-69
2023/04/18 04:03:53;;;;;;;8.25;5.40;;;;;;;;;;5073068;28;20123;-69
2023/04/18 04:06:19;;;;;;;7.28;5.07;;;;;;;;;;5075927;28;20059;-69
2023/04/18 04:08:45;;;;;;;7.60;5.40;;;;;;;;;;5074212;28;20048;-70
2023/04/18 04:11:11;;;;;;;8.35;5.43;;;;;;;;;;5072547;28;20060;-69
2023/04/18 04:13:37;;;;;;;8.48;5.53;;;;;;;;;;5076841;28;20118;-70
2023/04/18 04:16:04;;;;;;;6.38;4.97;;;;;;;;;;5052323;28;20040;-69
2023/04/18 04:18:30;;;;;;;5.78;4.72;;;;;;;;;;5060032;28;20040;-70
2023/04/18 04:20:59;;;;;;;8.20;5.40;;;;;;;;;;5068893;28;20036;-69
2023/04/18 04:23:26;;;;;;;8.30;5.45;;;;;;;;;;5068021;28;20049;-69
2023/04/18 04:25:52;;;;;;;7.78;5.57;;;;;;;;;;5067338;28;20048;-69
2023/04/18 04:28:22;;;;;;;7.45;5.47;;;;;;;;;;5078561;28;20039;-69
2023/04/18 04:30:49;;;;;;;7.07;5.38;;;;;;;;;;5056590;28;20036;-69
2023/04/18 04:33:19;;;;;;;6.05;5.35;;;;;;;;;;5089101;28;20048;-69
2023/04/18 04:35:46;;;;;;;7.43;5.50;;;;;;;;;;5076918;28;20040;-69
2023/04/18 04:38:13;;;;;;;;;;;;;;;;;;5102953;28;20450;-69
2023/04/18 04:40:39;;;;;;;7.85;5.95;;;;;;;;;;5068714;28;19916;-69
2023/04/18 04:43:05;;;;;;;6.70;5.10;;;;;;;;;;5068462;28;20043;-69
2023/04/18 04:45:32;;;;;;;7.72;5.97;;;;;;;;;;5042136;28;20128;-70
2023/04/18 04:47:58;;;;;;;8.40;6.00;;;;;;;;;;5033288;28;20045;-70
2023/04/18 04:50:24;;;;;;;8.77;5.60;;;;;;;;;;5068801;28;20055;-70
2023/04/18 04:52:50;;;;;;;9.30;5.70;;;;;;;;;;5068706;28;20056;-70
2023/04/18 04:55:17;;;;;;;11.50;6.88;;;;;;;;;;5063028;28;20387;-70
2023/04/18 04:57:44;;;;;;;8.13;5.57;;;;;;;;;;5061052;28;20044;-69
2023/04/18 05:00:12;;;;;;;7.10;5.35;;;;;;;;;;5068391;28;20048;-69
2023/04/18 05:02:38;;;;;;;8.68;6.35;;;;;;;;;;5068655;28;20059;-70
2023/04/18 05:05:04;;;;;;;9.38;6.28;;;;;;;;;;5068392;28;20131;-69
2023/04/18 05:07:30;;;;;;;8.40;6.00;;;;;;;;;;5051868;28;20453;-68
2023/04/18 05:09:57;;;;;;;8.60;5.80;;;;;;;;;;5067734;28;20083;-69
2023/04/18 05:12:23;;;;;;;6.80;5.65;;;;;;;;;;5055536;28;20051;-69
2023/04/18 05:14:49;;;;;;;6.32;4.80;;;;;;;;;;5068920;28;20499;-68
2023/04/18 05:17:15;;;;;;;9.32;6.10;;;;;;;;;;5068286;28;20053;-69
2023/04/18 05:19:42;;;;;;;7.97;6.47;;;;;;;;;;5068489;28;20123;-69
2023/04/18 05:22:09;;;;;;;8.63;6.68;;;;;;;;;;5068272;28;20067;-68
2023/04/18 05:24:35;;;;;;;10.30;6.40;;;;;;;;;;5068525;28;20044;-68
2023/04/18 05:27:02;;;;;;;7.97;6.30;;;;;;;;;;5068315;28;20045;-68
2023/04/18 05:29:28;;;;;;;;;;;;;;;;;;5061453;28;20537;-68
2023/04/18 05:31:54;;;;;;;8.50;6.80;;;;;;;;;;5095755;28;19916;-68
2023/04/18 05:34:20;;;;;;;7.10;5.90;;;;;;;;;;5068251;28;20094;-68
2023/04/18 05:36:46;;;;;;;6.93;5.82;;;;;;;;;;5068767;28;20451;-68
2023/04/18 05:39:13;;;;;;;9.48;6.40;;;;;;;;;;5064350;28;20052;-68
2023/04/18 05:41:39;;;;;;;12.40;7.03;;;;;;;;;;5054125;28;20087;-68
2023/04/18 05:44:05;;;;;;;9.82;7.75;;;;;;;;;;5068176;28;20416;-68
2023/04/18 05:46:31;;;;;;;9.93;7.00;;;;;;;;;;5064073;28;20067;-71
2023/04/18 05:48:57;;;;;;;11.43;6.60;;;;;;;;;;5048192;28;20560;-71
2023/04/18 05:51:23;;;;;;;6.38;5.40;;;;;;;;;;5062252;28;20049;-71
2023/04/18 05:53:49;;;;;;;9.45;6.85;;;;;;;;;;5049625;28;20491;-71
2023/04/18 05:56:15;;;;;;;8.98;6.70;;;;;;;;;;5062311;28;20048;-71
2023/04/18 05:58:41;;;;;;;9.75;6.68;;;;;;;;;;5037985;28;20045;-71
2023/04/18 06:01:07;;;;;;;8.45;6.05;;;;;;;;;;5071570;28;20545;-71
2023/04/18 06:03:34;;;;;;;8.85;6.55;;;;;;;;;;5055043;28;20045;-71
2023/04/18 06:06:00;;;;;;;;;;;;;;;;;;5063500;28;20377;-71
2023/04/18 06:08:26;;;;;;;8.95;6.82;;;;;;;;;;5087535;28;19928;-72
2023/04/18 06:10:52;;;;;;;10.20;7.68;;;;;;;;;;5063334;28;20106;-72
2023/04/18 06:13:18;;;;;;;12.35;7.38;;;;;;;;;;5049252;28;20081;-72
2023/04/18 06:15:44;;;;;;;9.45;6.40;;;;;;;;;;5071374;28;20052;-71
2023/04/18 06:18:10;;;;;;;8.88;6.65;;;;;;;;;;5071493;28;20134;-73
2023/04/18 06:20:36;;;;;;;10.60;6.60;;;;;;;;;;5071050;28;20033;-72
2023/04/18 06:23:02;;;;;;;7.35;6.22;;;;;;;;;;5071292;28;20503;-71
2023/04/18 06:25:28;;;;;;;10.05;6.70;;;;;;;;;;5054664;28;20396;-71
2023/04/18 06:27:54;;;;;;;9.68;6.55;;;;;;;;;;5071191;28;20040;-71
2023/04/18 06:30:21;;;;;;;8.48;6.10;;;;;;;;;;5072482;28;20813;-71
2023/04/18 06:32:47;;;;;;;7.85;5.85;;;;;;;;;;5064314;28;20033;-71
2023/04/18 06:35:13;;;;;;;;;;;;;;;;;;5064738;28;20048;-71
2023/04/18 06:37:42;;;;;;;8.48;6.35;;;;;;;;;;5070966;28;19920;-71
2023/04/18 06:40:09;;;;;;;8.23;6.13;;;;;;;;;;5078681;28;20050;-71
2023/04/18 06:42:35;;;;;;;9.90;6.50;;;;;;;;;;5077264;28;20076;-71
2023/04/18 06:45:02;;;;;;;9.40;6.00;;;;;;;;;;5056751;28;20041;-72
2023/04/18 06:47:28;;;;;;;8.38;5.93;;;;;;;;;;5070865;28;20052;-72
2023/04/18 06:49:54;;;;;;;;;;;;;;;;;;5054513;28;20143;-71
2023/04/18 06:52:20;;;;;;;9.32;6.28;;;;;;;;;;5070833;28;20069;-71
2023/04/18 06:54:46;;;;;;;8.88;5.88;;;;;;;;;;5054114;28;20144;-71
2023/04/18 06:57:13;;;;;;;6.68;5.32;;;;;;;;;;5070717;28;20131;-72
2023/04/18 06:59:40;;;;;;;8.45;6.18;;;;;;;;;;5072360;28;20369;-71
2023/04/18 07:02:07;;;;;;;10.13;6.35;;;;;;;;;;5053907;28;20056;-71
2023/04/18 07:04:33;;;;;;;8.23;6.00;;;;;;;;;;5070634;28;20138;-71
2023/04/18 07:07:00;;;;;;;;;;;;;;;;;;5072338;28;20036;-71
2023/04/18 07:09:26;;;;;;;8.55;5.80;;;;;;;;;;5070481;28;19916;-71
2023/04/18 07:11:52;;;;;;;;;;;;;;;;;;5067327;28;20079;-71
2023/04/18 07:14:20;;;;;;;8.85;6.07;;;;;;;;;;5093213;28;19952;-72
2023/04/18 07:16:46;;;;;;;5.75;4.90;;;;;;;;;;5053628;28;20078;-69
2023/04/18 07:19:13;;;;;;;7.00;5.80;;;;;;;;;;5070611;28;20399;-69
2023/04/18 07:21:41;;;;;;;8.77;5.40;;;;;;;;;;5053521;28;20044;-69
2023/04/18 07:24:07;;;;;;;6.57;5.45;;;;;;;;;;5070176;28;20109;-69
2023/04/18 07:26:33;;;;;;;8.45;6.15;;;;;;;;;;5053578;28;20045;-69
2023/04/18 07:28:59;;;;;;;7.50;5.82;;;;;;;;;;5070192;28;20480;-69
2023/04/18 07:31:27;;;;;;;8.80;6.13;;;;;;;;;;5070217;28;20491;-69
2023/04/18 07:33:53;;;;;;;7.95;6.03;;;;;;;;;;5070070;28;20072;-69
2023/04/18 07:36:19;;;;;;;;;;;;;;;;;;5070673;28;20042;-69
2023/04/18 07:38:45;;;;;;;6.78;5.90;;;;;;;;;;5070172;28;20327;-69
2023/04/18 07:41:11;;;;;;;8.02;6.47;;;;;;;;;;5080304;28;20092;-70
2023/04/18 07:43:37;;;;;;;8.98;6.65;;;;;;;;;;5069881;28;20080;-69
2023/04/18 07:46:04;;;;;;;9.50;6.00;;;;;;;;;;5070101;28;20096;-70
2023/04/18 07:48:30;;;;;;;7.32;5.97;;;;;;;;;;5070094;28;20052;-69
2023/04/18 07:50:56;;;;;;;9.65;6.72;;;;;;;;;;5069840;28;20040;-68
2023/04/18 07:53:22;;;;;;;8.20;6.55;;;;;;;;;;5069625;28;20068;-68
2023/04/18 07:55:49;;;;;;;7.03;5.82;;;;;;;;;;5069604;28;20445;-68
2023/04/18 07:58:15;;;;;;;10.77;7.47;;;;;;;;;;5069608;28;20197;-68
2023/04/18 08:00:43;;;;;;;9.95;6.70;;;;;;;;;;5069688;28;20036;-68
2023/04/18 08:03:10;;;;;;;12.93;6.38;;;;;;;;;;5069644;28;20048;-68
2023/04/18 08:05:37;;;;;;;7.13;5.88;;;;;;;;;;5052939;28;20102;-68
2023/04/18 08:08:03;;;;;;;10.18;6.57;;;;;;;;;;5069300;28;20041;-69
2023/04/18 08:10:29;;;;;;;9.10;6.30;;;;;;;;;;5069222;28;20036;-69
2023/04/18 08:12:55;;;;;;;7.68;6.05;;;;;;;;;;5069322;28;20055;-69
2023/04/18 08:15:21;;;;;;;9.32;6.35;;;;;;;;;;5066204;28;20041;-69
2023/04/18 08:17:47;;;;;;;8.60;6.38;;;;;;;;;;5058740;28;20119;-69
2023/04/18 08:20:14;;;;;;;;;;;;;;;;;;5055668;28;20098;-69
2023/04/18 08:22:40;;;;;;;7.57;5.97;;;;;;;;;;5069038;28;19920;-69
2023/04/18 08:25:07;;;;;;;7.70;5.78;;;;;;;;;;5055472;28;20119;-69
2023/04/18 08:27:33;;;;;;;8.13;6.20;;;;;;;;;;5069091;28;20123;-69
2023/04/18 08:29:59;;;;;;;8.77;6.45;;;;;;;;;;5069205;28;20088;-71
2023/04/18 08:32:26;;;;;;;9.30;6.50;;;;;;;;;;5054947;28;20056;-69
2023/04/18 08:34:52;;;;;;;7.47;5.45;;;;;;;;;;5069438;28;20046;-69
2023/04/18 08:37:18;;;;;;;9.20;5.78;;;;;;;;;;5068848;28;20055;-69
2023/04/18 08:39:44;;;;;;;9.00;6.15;;;;;;;;;;5069133;28;20044;-69
2023/04/18 08:42:10;;;;;;;7.97;5.85;;;;;;;;;;5069001;28;20047;-69
2023/04/18 08:44:36;;;;;;;7.82;5.68;;;;;;;;;;5066619;28;20048;-69
2023/04/18 08:47:02;;;;;;;;;;;;;;;;;;5057703;28;20501;-70
2023/04/18 08:49:30;;;;;;;9.43;6.10;;;;;;;;;;5068827;28;19978;-71
2023/04/18 08:51:57;;;;;;;9.88;6.43;;;;;;;;;;5068692;28;20053;-71
2023/04/18 08:54:23;;;;;;;8.07;6.35;;;;;;;;;;5069070;28;20408;-70
2023/04/18 08:57:03;;;;;;;8.15;5.72;;;;;;;;;;5068742;28;20067;-69
2023/04/18 08:59:31;;;;;;;11.25;6.15;;;;;;;;;;5056323;28;20484;-70
2023/04/18 09:01:58;;;;;;;8.52;6.50;;;;;;;;;;5048693;28;20052;-72
2023/04/18 09:04:33;;;;;;;10.00;6.32;;;;;;;;;;5059815;28;20054;-72
2023/04/18 09:06:59;;;;;;;7.93;5.78;;;;;;;;;;5068650;28;20496;-72
2023/04/18 09:09:29;;;;;;;10.23;5.72;;;;;;;;;;5068816;28;20051;-72
2023/04/18 09:12:07;;;;;;;7.80;5.38;;;;;;;;;;5065774;28;20143;-72
2023/04/18 09:14:41;;;;;;;11.50;6.35;;;;;;;;;;5050162;28;20048;-72
2023/04/18 09:17:08;;;;;;;8.02;5.70;;;;;;;;;;5035847;28;20044;-72
2023/04/18 09:19:34;;;;;;;8.93;5.60;;;;;;;;;;5102784;28;20510;-72
2023/04/18 09:22:00;;;;;;;;;;;;;;;;;;5049632;28;20113;-70
2023/04/18 09:24:27;;;;;;;7.93;4.95;;;;;;;;;;5068610;28;20011;-70
2023/04/18 09:26:54;;;;;;;10.95;6.35;;;;;;;;;;5054570;28;20106;-70
2023/04/18 09:29:21;;;;;;;8.15;6.15;;;;;;;;;;5069966;28;20101;-70
2023/04/18 09:31:56;;;;;;;8.02;5.82;;;;;;;;;;5039263;28;20128;-70
2023/04/18 09:34:23;;;;;;;7.47;5.40;;;;;;;;;;5069336;28;20052;-70
2023/04/18 09:37:05;;;;;;;8.63;6.13;;;;;;;;;;5072679;28;20044;-70
2023/04/18 09:39:31;;;;;;;8.98;6.20;;;;;;;;;;5058919;28;20063;-72
2023/04/18 09:42:01;;;;;;;7.10;5.78;;;;;;;;;;5055589;28;20040;-72
2023/04/18 09:44:27;;;;;;;7.88;5.70;;;;;;;;;;5058188;28;20049;-72
2023/04/18 09:46:53;;;;;;;7.55;5.38;;;;;;;;;;5072319;28;20040;-72
2023/04/18 09:49:19;;;;;;;9.15;5.60;;;;;;;;;;5073774;28;20177;-70
2023/04/18 09:51:46;;;;;;;10.40;5.75;;;;;;;;;;5071801;28;20353;-70
2023/04/18 09:54:15;;;;;;;9.38;5.70;;;;;;;;;;5072503;28;20544;-70
2023/04/18 09:56:45;;;;;;;7.18;5.53;;;;;;;;;;5069212;28;20045;-70
2023/04/18 09:59:11;;;;;;;9.60;5.50;;;;;;;;;;5070250;28;20047;-71
2023/04/18 10:01:43;;;;;;;8.68;5.93;;;;;;;;;;5069471;28;20345;-71
2023/04/18 10:04:11;;;;;;;8.13;5.47;;;;;;;;;;5072339;28;20330;-71
2023/04/18 10:06:38;;;;;;;8.82;5.40;;;;;;;;;;5070800;28;20101;-71
2023/04/18 10:09:06;;;;;;;7.25;5.22;;;;;;;;;;5053699;28;20083;-71
2023/04/18 10:11:32;;;;;;;7.55;5.03;;;;;;;;;;5076957;28;20052;-71
2023/04/18 10:13:58;;;;;;;;;;;;;;;;;;5057954;28;20041;-69
2023/04/18 10:16:25;;;;;;;8.85;5.07;;;;;;;;;;5068323;28;19920;-70
2023/04/18 10:18:51;;;;;;;8.05;4.90;;;;;;;;;;5053425;28;20053;-69
2023/04/18 10:21:17;;;;;;;8.93;4.88;;;;;;;;;;5103594;28;20427;-69
2023/04/18 10:23:44;;;;;;;8.00;4.63;;;;;;;;;;5055181;28;20653;-70
2023/04/18 10:26:11;;;;;;;7.75;4.82;;;;;;;;;;5069972;28;20041;-69
2023/04/18 10:28:55;;;;;;;5.68;4.15;;;;;;;;;;5072796;28;20102;-69
2023/04/18 10:31:23;;;;;;;5.28;4.60;;;;;;;;;;5054319;28;20183;-69
2023/04/18 10:33:49;;;;;;;10.23;4.40;;;;;;;;;;5070227;28;20048;-69
2023/04/18 10:36:18;;;;;;;7.43;4.53;;;;;;;;;;5063488;28;20511;-69
2023/04/18 10:38:49;;;;;;;7.85;4.40;;;;;;;;;;5051516;28;20080;-71
2023/04/18 10:41:15;;;;;;;5.38;4.18;;;;;;;;;;5098087;28;20068;-70
2023/04/18 10:44:00;;;;;;;4.78;4.00;;;;;;;;;;5059945;28;20391;-70
2023/04/18 10:46:26;;;;;;;8.73;4.20;;;;;;;;;;5049925;28;20049;-70
2023/04/18 10:49:11;;;;;;;8.32;4.03;;;;;;;;;;5043910;28;20126;-70
2023/04/18 10:51:37;;;;;;;5.70;4.00;;;;;;;;;;5040462;28;20113;-69
2023/04/18 10:54:04;;;;;;;5.78;3.80;;;;;;;;;;5071209;28;20071;-70
2023/04/18 10:56:30;;;;;;;6.45;3.60;;;;;;;;;;5070968;28;20048;-70
2023/04/18 10:59:00;;;;;;;4.80;4.03;;;;;;;;;;5070706;28;20120;-70
2023/04/18 11:01:27;;;;;;;6.25;3.53;;;;;;;;;;5070593;28;20484;-70
2023/04/18 11:03:54;;;;;;;6.88;3.75;;;;;;;;;;5070999;28;20045;-70
2023/04/18 11:06:21;;;;;;;6.15;4.43;;;;;;;;;;5070581;28;20040;-70
2023/04/18 11:08:47;;;;;;;7.32;4.30;;;;;;;;;;5071024;28;20028;-70
2023/04/18 11:11:13;;;;;;;6.25;4.07;;;;;;;;;;5070839;28;20560;-70
2023/04/18 11:13:58;;;;;;;7.03;3.95;;;;;;;;;;5050980;28;20059;-70
2023/04/18 11:16:27;;;;;;;6.30;4.32;;;;;;;;;;5062473;28;20466;-70
2023/04/18 11:18:54;;;;;;;6.55;4.40;;;;;;;;;;5056639;28;20087;-73
2023/04/18 11:21:20;;;;;;;4.68;3.67;;;;;;;;;;5070249;28;20051;-72
2023/04/18 11:23:46;;;;;;;;;;;;;;;;;;5051407;28;20040;-73
2023/04/18 11:26:16;;;;;;;7.40;4.88;;;;;;;;;;5092838;28;19924;-73
2023/04/18 11:28:43;;;;;;;5.30;4.70;;;;;;;;;;5053922;28;20048;-73
2023/04/18 11:31:09;;;;;;;4.80;3.85;;;;;;;;;;5071729;28;20041;-71
2023/04/18 11:33:35;;;;;;;6.60;4.28;;;;;;;;;;5056844;28;20115;-72
2023/04/18 11:36:01;;;;;;;5.35;4.38;;;;;;;;;;5052934;28;20039;-72
2023/04/18 11:38:29;;;;;;;6.80;4.35;;;;;;;;;;5054001;28;20118;-73
2023/04/18 11:40:56;;;;;;;6.03;4.20;;;;;;;;;;5070083;28;20184;-72
2023/04/18 11:43:24;;;;;;;5.07;3.25;;;;;;;;;;5069975;28;20052;-72
2023/04/18 11:45:54;;;;;;;4.60;3.10;;;;;;;;;;5057586;28;20412;-72
2023/04/18 11:48:21;;;;;;;4.18;3.28;;;;;;;;;;5069308;28;20387;-73
2023/04/18 11:50:47;;;;;;;4.90;3.53;;;;;;;;;;5053545;28;20391;-72
2023/04/18 11:53:13;;;;;;;4.00;3.38;;;;;;;;;;5055496;28;20516;-72
2023/04/18 11:55:39;;;;;;;4.43;2.95;;;;;;;;;;5069808;28;20041;-72
2023/04/18 11:58:05;;;;;;;4.53;3.50;;;;;;;;;;5052805;28;20048;-73
2023/04/18 12:00:31;;;;;;;;;;;;;;;;;;5070393;28;20444;-73
2023/04/18 12:02:58;;;;;;;4.45;3.38;;;;;;;;;;5069629;28;19964;-73
2023/04/18 12:05:31;;;;;;;3.58;2.90;;;;;;;;;;5038807;28;20040;-72
2023/04/18 12:08:06;;;;;;;3.85;2.95;;;;;;;;;;5069727;28;20048;-73
2023/04/18 12:10:34;;;;;;;3.60;2.83;;;;;;;;;;5065227;28;20044;-73
2023/04/18 12:13:01;;;;;;;3.80;2.65;;;;;;;;;;5044950;28;20406;-72
2023/04/18 12:15:28;;;;;;;3.97;3.20;;;;;;;;;;5053149;28;20044;-72
2023/04/18 12:18:04;;;;;;;2.95;2.60;;;;;;;;;;5059043;28;20095;-72
2023/04/18 12:20:37;;;;;;;2.53;2.28;;;;;;;;;;5067471;28;20116;-72
2023/04/18 12:23:04;;;;;;;2.03;1.83;;;;;;;;;;5052764;28;20127;-72
2023/04/18 12:25:30;;;;;;;2.10;1.80;;;;;;;;;;5056658;28;20170;-72
2023/04/18 12:28:00;;;;;;;2.55;1.92;;;;;;;;;;5069424;28;20123;-72
2023/04/18 12:30:30;;;;;;;2.80;2.40;;;;;;;;;;5055442;28;20397;-72
2023/04/18 12:32:58;;;;;;;2.92;2.47;;;;;;;;;;5069567;28;20404;-73
2023/04/18 12:35:25;;;;;;;4.90;2.40;;;;;;;;;;5070534;28;20052;-72
2023/04/18 12:37:52;;;;;;;2.53;2.28;;;;;;;;;;5069384;28;20098;-72
2023/04/18 12:40:19;;;;;;;3.35;2.40;;;;;;;;;;5077950;28;20043;-72
2023/04/18 12:42:46;;;;;;;3.88;2.65;;;;;;;;;;5059949;28;20543;-73
2023/04/18 12:45:13;;;;;;;3.17;2.30;;;;;;;;;;5045114;28;20076;-73
2023/04/18 12:47:40;;;;;;;3.05;2.65;;;;;;;;;;5062209;28;20047;-73
2023/04/18 12:50:07;;;;;;;4.03;2.70;;;;;;;;;;5063599;28;20033;-72
2023/04/18 12:52:33;;;;;;;4.72;2.58;;;;;;;;;;5060514;28;20500;-72
2023/04/18 12:54:59;;;;;;;;;;;;;;;;;;5065603;28;20039;-73
2023/04/18 12:57:26;;;;;;;3.05;2.50;;;;;;;;;;5092110;28;19924;-73
2023/04/18 12:59:52;;;;;;;3.17;2.60;;;;;;;;;;5069025;28;20040;-72
2023/04/18 13:02:18;;;;;;;3.08;2.55;;;;;;;;;;5069167;28;20064;-73
2023/04/18 13:04:44;;;;;;;3.35;2.80;;;;;;;;;;5052196;28;20045;-72
2023/04/18 13:07:10;;;;;;;3.95;2.78;;;;;;;;;;5056268;28;20113;-73
2023/04/18 13:09:36;;;;;;;2.75;2.40;;;;;;;;;;5068040;28;20033;-72
2023/04/18 13:12:02;;;;;;;2.83;2.53;;;;;;;;;;5064866;28;20400;-73
2023/04/18 13:14:28;;;;;;;4.63;2.38;;;;;;;;;;5058812;28;20079;-72
2023/04/18 13:16:54;;;;;;;2.75;2.40;;;;;;;;;;5051871;28;20036;-73
2023/04/18 13:19:21;;;;;;;4.57;2.90;;;;;;;;;;5068610;28;20045;-72
2023/04/18 13:21:49;;;;;;;4.07;2.55;;;;;;;;;;5073206;28;20047;-72
2023/04/18 13:24:16;;;;;;;3.75;2.88;;;;;;;;;;5052873;28;20040;-73
2023/04/18 13:26:43;;;;;;;3.05;2.63;;;;;;;;;;5069498;28;20468;-72
2023/04/18 13:29:09;;;;;;;4.45;3.00;;;;;;;;;;5068576;28;20174;-72
2023/04/18 13:31:35;;;;;;;;;;;;;;;;;;5069304;28;20094;-72
2023/04/18 13:34:01;;;;;;;4.13;2.65;;;;;;;;;;5048942;28;19920;-73
2023/04/18 13:36:27;;;;;;;3.58;2.80;;;;;;;;;;5057381;28;20445;-72
2023/04/18 13:38:53;;;;;;;4.30;2.88;;;;;;;;;;5068476;28;20083;-70
2023/04/18 13:41:19;;;;;;;3.95;2.70;;;;;;;;;;5068125;28;20048;-70
2023/04/18 13:43:45;;;;;;;6.15;3.28;;;;;;;;;;5068437;28;20427;-70
2023/04/18 13:46:11;;;;;;;4.68;3.00;;;;;;;;;;5068314;28;20094;-70
2023/04/18 13:48:37;;;;;;;4.43;3.20;;;;;;;;;;5068784;28;20090;-70
2023/04/18 13:51:04;;;;;;;5.60;3.30;;;;;;;;;;5068602;28;20125;-70
2023/04/18 13:53:30;;;;;;;5.05;3.55;;;;;;;;;;5054059;28;20052;-70
2023/04/18 13:55:56;;;;;;;5.72;3.50;;;;;;;;;;5068385;28;20055;-69
2023/04/18 13:58:22;;;;;;;;;;;;;;;;;;5054621;28;20158;-70
2023/04/18 14:00:48;;;;;;;6.22;4.43;;;;;;;;;;5068357;28;20064;-70
2023/04/18 14:03:14;;;;;;;5.82;4.20;;;;;;;;;;5067983;28;20040;-70
2023/04/18 14:05:40;;;;;;;5.35;4.40;;;;;;;;;;5051628;28;20605;-70
2023/04/18 14:08:06;;;;;;;6.47;4.35;;;;;;;;;;5068157;28;20044;-70
2023/04/18 14:10:32;;;;;;;6.80;4.00;;;;;;;;;;5068239;28;20051;-70
2023/04/18 14:12:58;;;;;;;5.05;3.72;;;;;;;;;;5067940;28;20531;-70
2023/04/18 14:15:25;;;;;;;4.22;3.78;;;;;;;;;;5051839;28;20032;-70
2023/04/18 14:17:51;;;;;;;5.10;4.50;;;;;;;;;;5068234;28;20478;-70
2023/04/18 14:20:18;;;;;;;6.03;4.65;;;;;;;;;;5050040;28;20052;-70
2023/04/18 14:22:49;;;;;;;5.85;3.97;;;;;;;;;;5070795;28;20110;-70
2023/04/18 14:25:15;;;;;;;5.60;4.57;;;;;;;;;;5071255;28;20106;-70
2023/04/18 14:27:42;;;;;;;7.78;6.18;;;;;;;;;;5071782;28;20056;-70
2023/04/18 14:30:09;;;;;;;7.88;5.45;;;;;;;;;;5071728;28;20055;-70
2023/04/18 14:32:35;;;;;;;5.45;4.95;;;;;;;;;;5071434;28;20094;-70
2023/04/18 14:35:01;;;;;;;;;;;;;;;;;;5071848;28;20101;-70
2023/04/18 14:37:27;;;;;;;5.90;4.90;;;;;;;;;;5054721;28;19916;-70
2023/04/18 14:39:53;;;;;;;7.85;5.25;;;;;;;;;;5076441;28;20047;-74
2023/04/18 14:42:19;;;;;;;6.82;4.80;;;;;;;;;;5079880;28;20048;-74
2023/04/18 14:44:45;;;;;;;6.30;5.00;;;;;;;;;;5054432;28;20045;-73
2023/04/18 14:47:11;;;;;;;6.38;4.97;;;;;;;;;;5071506;28;20517;-73